sensor_id;sensor_type;location;lat;lon;timestamp;temperature;humidity
5689;DHT22;2869;50.432;8.680;2022-08-30T00:02:18;16.90;99.90
5689;DHT22;2869;50.432;8.680;2022-08-30T00:04:45;16.90;99.90
5689;DHT22;2869;50.432;8.680;2022-08-30T00:07:11;16.90;99.90
5689;DHT22;2869;50.432;8.680;2022-08-30T00:09:39;16.80;99.90
5689;DHT22;2869;50.432;8.680;2022-08-30T00:12:07;16.80;99.90
5689;DHT22;2869;50.432;8.680;2022-08-30T00:14:34;16.70;99.90
5689;DHT22;2869;50.432;8.680;2022-08-30T00:17:00;16.70;99.90
5689;DHT22;2869;50.432;8.680;2022-08-30T00:19:27;16.70;99.90
5689;DHT22;2869;50.432;8.680;2022-08-30T00:21:53;16.60;99.90
5689;DHT22;2869;50.432;8.680;2022-08-30T00:24:20;16.60;99.90
5689;DHT22;2869;50.432;8.680;2022-08-30T00:26:48;16.50;99.90
5689;DHT22;2869;50.432;8.680;2022-08-30T00:29:15;16.50;99.90
5689;DHT22;2869;50.432;8.680;2022-08-30T00:31:41;16.40;99.90
5689;DHT22;2869;50.432;8.680;2022-08-30T00:34:08;16.40;99.90
5689;DHT22;2869;50.432;8.680;2022-08-30T00:36:34;16.30;99.90
5689;DHT22;2869;50.432;8.680;2022-08-30T00:39:02;16.30;99.90
5689;DHT22;2869;50.432;8.680;2022-08-30T00:41:28;16.40;99.90
5689;DHT22;2869;50.432;8.680;2022-08-30T00:43:56;16.40;99.90
5689;DHT22;2869;50.432;8.680;2022-08-30T00:46:23;16.30;99.90
5689;DHT22;2869;50.432;8.680;2022-08-30T00:48:50;16.30;99.90
5689;DHT22;2869;50.432;8.680;2022-08-30T00:51:17;16.30;99.90
5689;DHT22;2869;50.432;8.680;2022-08-30T00:53:48;16.30;99.90
5689;DHT22;2869;50.432;8.680;2022-08-30T00:56:16;16.30;99.90
5689;DHT22;2869;50.432;8.680;2022-08-30T00:58:46;16.20;99.90
5689;DHT22;2869;50.432;8.680;2022-08-30T01:01:15;16.20;99.90
5689;DHT22;2869;50.432;8.680;2022-08-30T01:03:43;16.20;99.90
5689;DHT22;2869;50.432;8.680;2022-08-30T01:06:10;16.10;99.90
5689;DHT22;2869;50.432;8.680;2022-08-30T01:08:38;16.10;99.90
5689;DHT22;2869;50.432;8.680;2022-08-30T01:11:05;16.10;99.90
5689;DHT22;2869;50.432;8.680;2022-08-30T01:13:33;16.10;99.90
5689;DHT22;2869;50.432;8.680;2022-08-30T01:16:01;16.10;99.90
5689;DHT22;2869;50.432;8.680;2022-08-30T01:18:29;16.10;99.90
5689;DHT22;2869;50.432;8.680;2022-08-30T01:21:00;16.10;99.90
5689;DHT22;2869;50.432;8.680;2022-08-30T01:23:33;15.90;99.90
5689;DHT22;2869;50.432;8.680;2022-08-30T01:26:03;16.10;99.90
5689;DHT22;2869;50.432;8.680;2022-08-30T01:28:31;16.10;99.90
5689;DHT22;2869;50.432;8.680;2022-08-30T01:30:58;16.00;99.90
5689;DHT22;2869;50.432;8.680;2022-08-30T01:33:24;16.00;99.90
5689;DHT22;2869;50.432;8.680;2022-08-30T01:35:53;16.00;99.90
5689;DHT22;2869;50.432;8.680;2022-08-30T01:38:22;16.00;99.90
5689;DHT22;2869;50.432;8.680;2022-08-30T01:40:56;16.00;99.90
5689;DHT22;2869;50.432;8.680;2022-08-30T01:43:24;15.90;99.90
5689;DHT22;2869;50.432;8.680;2022-08-30T01:45:51;15.90;99.90
5689;DHT22;2869;50.432;8.680;2022-08-30T01:48:17;15.90;99.90
5689;DHT22;2869;50.432;8.680;2022-08-30T01:50:46;15.80;99.90
5689;DHT22;2869;50.432;8.680;2022-08-30T01:53:13;15.80;99.90
5689;DHT22;2869;50.432;8.680;2022-08-30T01:55:41;15.80;99.90
5689;DHT22;2869;50.432;8.680;2022-08-30T01:58:09;15.70;99.90
5689;DHT22;2869;50.432;8.680;2022-08-30T02:00:35;15.70;99.90
5689;DHT22;2869;50.432;8.680;2022-08-30T02:03:03;15.60;99.90
5689;DHT22;2869;50.432;8.680;2022-08-30T02:05:30;15.60;99.90
5689;DHT22;2869;50.432;8.680;2022-08-30T02:07:57;15.60;99.90
5689;DHT22;2869;50.432;8.680;2022-08-30T02:10:24;15.50;99.90
5689;DHT22;2869;50.432;8.680;2022-08-30T02:12:50;15.50;99.90
5689;DHT22;2869;50.432;8.680;2022-08-30T02:15:19;15.50;99.90
5689;DHT22;2869;50.432;8.680;2022-08-30T02:17:45;15.40;99.90
5689;DHT22;2869;50.432;8.680;2022-08-30T02:20:12;15.40;99.90
5689;DHT22;2869;50.432;8.680;2022-08-30T02:22:39;15.40;99.90
5689;DHT22;2869;50.432;8.680;2022-08-30T02:25:07;15.40;99.90
5689;DHT22;2869;50.432;8.680;2022-08-30T02:27:34;15.40;99.90
5689;DHT22;2869;50.432;8.680;2022-08-30T02:30:02;15.40;99.90
5689;DHT22;2869;50.432;8.680;2022-08-30T02:32:31;15.40;99.90
5689;DHT22;2869;50.432;8.680;2022-08-30T02:34:57;15.30;99.90
5689;DHT22;2869;50.432;8.680;2022-08-30T02:37:24;15.30;99.90
5689;DHT22;2869;50.432;8.680;2022-08-30T02:39:51;15.30;99.90
5689;DHT22;2869;50.432;8.680;2022-08-30T02:42:17;15.30;99.90
5689;DHT22;2869;50.432;8.680;2022-08-30T02:44:44;15.30;99.90
5689;DHT22;2869;50.432;8.680;2022-08-30T02:47:11;15.30;99.90
5689;DHT22;2869;50.432;8.680;2022-08-30T02:49:39;15.30;99.90
5689;DHT22;2869;50.432;8.680;2022-08-30T02:52:05;15.30;99.90
5689;DHT22;2869;50.432;8.680;2022-08-30T02:54:32;15.30;99.90
5689;DHT22;2869;50.432;8.680;2022-08-30T02:57:00;15.20;99.90
5689;DHT22;2869;50.432;8.680;2022-08-30T02:59:29;15.30;99.90
5689;DHT22;2869;50.432;8.680;2022-08-30T03:01:56;15.30;99.90
5689;DHT22;2869;50.432;8.680;2022-08-30T03:04:23;15.30;99.90
5689;DHT22;2869;50.432;8.680;2022-08-30T03:06:52;15.30;99.90
5689;DHT22;2869;50.432;8.680;2022-08-30T03:09:18;15.40;99.90
5689;DHT22;2869;50.432;8.680;2022-08-30T03:11:45;15.40;99.90
5689;DHT22;2869;50.432;8.680;2022-08-30T03:14:12;15.40;99.90
5689;DHT22;2869;50.432;8.680;2022-08-30T03:16:38;15.40;99.90
5689;DHT22;2869;50.432;8.680;2022-08-30T03:19:05;15.40;99.90
5689;DHT22;2869;50.432;8.680;2022-08-30T03:21:31;15.40;99.90
5689;DHT22;2869;50.432;8.680;2022-08-30T03:23:59;15.40;99.90
5689;DHT22;2869;50.432;8.680;2022-08-30T03:26:26;15.50;99.90
5689;DHT22;2869;50.432;8.680;2022-08-30T03:28:53;15.50;99.90
5689;DHT22;2869;50.432;8.680;2022-08-30T03:31:19;15.50;99.90
5689;DHT22;2869;50.432;8.680;2022-08-30T03:33:46;15.50;99.90
5689;DHT22;2869;50.432;8.680;2022-08-30T03:36:12;15.50;99.90
5689;DHT22;2869;50.432;8.680;2022-08-30T03:38:39;15.50;99.90
5689;DHT22;2869;50.432;8.680;2022-08-30T03:41:07;15.50;99.90
5689;DHT22;2869;50.432;8.680;2022-08-30T03:43:34;15.50;99.90
5689;DHT22;2869;50.432;8.680;2022-08-30T03:46:01;15.50;99.90
5689;DHT22;2869;50.432;8.680;2022-08-30T03:48:28;15.50;99.90
5689;DHT22;2869;50.432;8.680;2022-08-30T03:50:55;15.50;99.90
5689;DHT22;2869;50.432;8.680;2022-08-30T03:53:22;15.60;99.90
5689;DHT22;2869;50.432;8.680;2022-08-30T03:55:49;15.60;99.90
5689;DHT22;2869;50.432;8.680;2022-08-30T03:58:17;15.60;99.90
5689;DHT22;2869;50.432;8.680;2022-08-30T04:00:44;15.50;99.90
5689;DHT22;2869;50.432;8.680;2022-08-30T04:03:10;15.50;99.90
5689;DHT22;2869;50.432;8.680;2022-08-30T04:05:37;15.50;99.90
5689;DHT22;2869;50.432;8.680;2022-08-30T04:08:04;15.50;99.90
5689;DHT22;2869;50.432;8.680;2022-08-30T04:10:31;15.50;99.90
5689;DHT22;2869;50.432;8.680;2022-08-30T04:12:59;15.40;99.90
5689;DHT22;2869;50.432;8.680;2022-08-30T04:15:27;15.40;99.90
5689;DHT22;2869;50.432;8.680;2022-08-30T04:17:54;15.40;99.90
5689;DHT22;2869;50.432;8.680;2022-08-30T04:20:21;15.40;99.90
5689;DHT22;2869;50.432;8.680;2022-08-30T04:22:47;15.40;99.90
5689;DHT22;2869;50.432;8.680;2022-08-30T04:25:14;15.30;99.90
5689;DHT22;2869;50.432;8.680;2022-08-30T04:27:42;15.30;99.90
5689;DHT22;2869;50.432;8.680;2022-08-30T04:30:10;15.30;99.90
5689;DHT22;2869;50.432;8.680;2022-08-30T04:32:39;15.30;99.90
5689;DHT22;2869;50.432;8.680;2022-08-30T04:35:06;15.30;99.90
5689;DHT22;2869;50.432;8.680;2022-08-30T04:37:33;15.20;99.90
5689;DHT22;2869;50.432;8.680;2022-08-30T04:39:59;15.30;99.90
5689;DHT22;2869;50.432;8.680;2022-08-30T04:42:26;15.30;99.90
5689;DHT22;2869;50.432;8.680;2022-08-30T04:44:55;15.20;99.90
5689;DHT22;2869;50.432;8.680;2022-08-30T04:47:22;15.20;99.90
5689;DHT22;2869;50.432;8.680;2022-08-30T04:49:51;15.20;99.90
5689;DHT22;2869;50.432;8.680;2022-08-30T04:52:17;15.20;99.90
5689;DHT22;2869;50.432;8.680;2022-08-30T04:54:44;15.20;99.90
5689;DHT22;2869;50.432;8.680;2022-08-30T04:57:11;15.20;99.90
5689;DHT22;2869;50.432;8.680;2022-08-30T04:59:38;15.30;99.90
5689;DHT22;2869;50.432;8.680;2022-08-30T05:02:05;15.30;99.90
5689;DHT22;2869;50.432;8.680;2022-08-30T05:04:31;15.40;99.90
5689;DHT22;2869;50.432;8.680;2022-08-30T05:06:59;15.50;99.90
5689;DHT22;2869;50.432;8.680;2022-08-30T05:09:26;15.70;99.90
5689;DHT22;2869;50.432;8.680;2022-08-30T05:11:52;15.80;99.90
5689;DHT22;2869;50.432;8.680;2022-08-30T05:14:19;15.90;99.90
5689;DHT22;2869;50.432;8.680;2022-08-30T05:16:46;16.00;99.90
5689;DHT22;2869;50.432;8.680;2022-08-30T05:19:12;16.00;99.90
5689;DHT22;2869;50.432;8.680;2022-08-30T05:21:39;16.10;99.90
5689;DHT22;2869;50.432;8.680;2022-08-30T05:24:07;16.30;99.90
5689;DHT22;2869;50.432;8.680;2022-08-30T05:26:36;16.40;99.90
5689;DHT22;2869;50.432;8.680;2022-08-30T05:29:03;16.60;99.90
5689;DHT22;2869;50.432;8.680;2022-08-30T05:31:32;16.80;99.90
5689;DHT22;2869;50.432;8.680;2022-08-30T05:33:59;17.00;99.90
5689;DHT22;2869;50.432;8.680;2022-08-30T05:36:28;17.10;99.90
5689;DHT22;2869;50.432;8.680;2022-08-30T05:38:55;17.30;99.90
5689;DHT22;2869;50.432;8.680;2022-08-30T05:41:24;17.60;99.90
5689;DHT22;2869;50.432;8.680;2022-08-30T05:43:51;17.80;99.90
5689;DHT22;2869;50.432;8.680;2022-08-30T05:46:19;18.00;99.90
5689;DHT22;2869;50.432;8.680;2022-08-30T05:48:47;18.20;99.90
5689;DHT22;2869;50.432;8.680;2022-08-30T05:51:17;18.40;99.90
5689;DHT22;2869;50.432;8.680;2022-08-30T05:53:44;18.60;99.90
5689;DHT22;2869;50.432;8.680;2022-08-30T05:56:13;18.80;99.90
5689;DHT22;2869;50.432;8.680;2022-08-30T05:58:42;19.00;99.90
5689;DHT22;2869;50.432;8.680;2022-08-30T06:01:18;19.30;99.90
5689;DHT22;2869;50.432;8.680;2022-08-30T06:03:45;19.60;99.90
5689;DHT22;2869;50.432;8.680;2022-08-30T06:06:11;19.80;99.90
5689;DHT22;2869;50.432;8.680;2022-08-30T06:08:38;20.00;99.90
5689;DHT22;2869;50.432;8.680;2022-08-30T06:11:05;20.10;99.90
5689;DHT22;2869;50.432;8.680;2022-08-30T06:13:31;20.20;99.90
5689;DHT22;2869;50.432;8.680;2022-08-30T06:16:00;20.50;99.90
5689;DHT22;2869;50.432;8.680;2022-08-30T06:18:27;20.70;99.90
5689;DHT22;2869;50.432;8.680;2022-08-30T06:20:53;21.00;99.90
5689;DHT22;2869;50.432;8.680;2022-08-30T06:23:20;21.20;99.90
5689;DHT22;2869;50.432;8.680;2022-08-30T06:25:47;21.30;99.90
5689;DHT22;2869;50.432;8.680;2022-08-30T06:28:14;21.50;99.90
5689;DHT22;2869;50.432;8.680;2022-08-30T06:30:41;21.70;99.90
5689;DHT22;2869;50.432;8.680;2022-08-30T06:33:09;21.70;99.90
5689;DHT22;2869;50.432;8.680;2022-08-30T06:35:36;21.30;99.90
5689;DHT22;2869;50.432;8.680;2022-08-30T06:38:03;20.80;99.90
5689;DHT22;2869;50.432;8.680;2022-08-30T06:40:30;20.50;99.90
5689;DHT22;2869;50.432;8.680;2022-08-30T06:42:57;20.40;99.90
5689;DHT22;2869;50.432;8.680;2022-08-30T06:45:24;20.30;99.90
5689;DHT22;2869;50.432;8.680;2022-08-30T06:47:50;20.40;99.90
5689;DHT22;2869;50.432;8.680;2022-08-30T06:50:18;20.80;99.90
5689;DHT22;2869;50.432;8.680;2022-08-30T06:52:45;21.10;99.90
5689;DHT22;2869;50.432;8.680;2022-08-30T06:55:13;21.40;99.90
5689;DHT22;2869;50.432;8.680;2022-08-30T06:57:40;21.70;99.90
5689;DHT22;2869;50.432;8.680;2022-08-30T07:00:09;22.00;99.90
5689;DHT22;2869;50.432;8.680;2022-08-30T07:02:36;22.30;99.90
5689;DHT22;2869;50.432;8.680;2022-08-30T07:05:04;22.20;99.90
5689;DHT22;2869;50.432;8.680;2022-08-30T07:07:33;21.80;99.90
5689;DHT22;2869;50.432;8.680;2022-08-30T07:10:02;21.50;99.90
5689;DHT22;2869;50.432;8.680;2022-08-30T07:12:29;21.20;99.90
5689;DHT22;2869;50.432;8.680;2022-08-30T07:14:56;20.90;99.90
5689;DHT22;2869;50.432;8.680;2022-08-30T07:17:22;20.70;99.90
5689;DHT22;2869;50.432;8.680;2022-08-30T07:20:07;20.60;99.90
5689;DHT22;2869;50.432;8.680;2022-08-30T07:22:36;20.40;99.90
5689;DHT22;2869;50.432;8.680;2022-08-30T07:25:03;20.40;99.90
5689;DHT22;2869;50.432;8.680;2022-08-30T07:27:30;20.30;99.90
5689;DHT22;2869;50.432;8.680;2022-08-30T07:29:57;20.30;99.90
5689;DHT22;2869;50.432;8.680;2022-08-30T07:32:25;20.30;99.90
5689;DHT22;2869;50.432;8.680;2022-08-30T07:34:52;20.20;99.90
5689;DHT22;2869;50.432;8.680;2022-08-30T07:37:18;20.20;99.90
5689;DHT22;2869;50.432;8.680;2022-08-30T07:39:46;20.00;99.90
5689;DHT22;2869;50.432;8.680;2022-08-30T07:42:13;19.90;99.90
5689;DHT22;2869;50.432;8.680;2022-08-30T07:44:40;19.80;99.90
5689;DHT22;2869;50.432;8.680;2022-08-30T07:47:06;19.70;99.90
5689;DHT22;2869;50.432;8.680;2022-08-30T07:49:35;19.60;99.90
5689;DHT22;2869;50.432;8.680;2022-08-30T07:52:02;19.60;99.90
5689;DHT22;2869;50.432;8.680;2022-08-30T07:54:29;19.70;99.90
5689;DHT22;2869;50.432;8.680;2022-08-30T07:56:57;19.80;99.90
5689;DHT22;2869;50.432;8.680;2022-08-30T07:59:24;19.90;99.90
5689;DHT22;2869;50.432;8.680;2022-08-30T08:01:50;20.10;99.90
5689;DHT22;2869;50.432;8.680;2022-08-30T08:04:17;20.20;99.90
5689;DHT22;2869;50.432;8.680;2022-08-30T08:06:44;20.40;99.90
5689;DHT22;2869;50.432;8.680;2022-08-30T08:09:11;20.50;99.90
5689;DHT22;2869;50.432;8.680;2022-08-30T08:11:38;20.70;99.90
5689;DHT22;2869;50.432;8.680;2022-08-30T08:14:07;20.90;99.90
5689;DHT22;2869;50.432;8.680;2022-08-30T08:16:35;21.20;99.90
5689;DHT22;2869;50.432;8.680;2022-08-30T08:19:02;21.50;99.90
5689;DHT22;2869;50.432;8.680;2022-08-30T08:21:33;21.80;99.90
5689;DHT22;2869;50.432;8.680;2022-08-30T08:24:00;21.90;99.90
5689;DHT22;2869;50.432;8.680;2022-08-30T08:26:27;22.10;99.90
5689;DHT22;2869;50.432;8.680;2022-08-30T08:28:54;22.20;99.90
5689;DHT22;2869;50.432;8.680;2022-08-30T08:31:25;22.40;99.90
5689;DHT22;2869;50.432;8.680;2022-08-30T08:33:52;22.60;99.90
5689;DHT22;2869;50.432;8.680;2022-08-30T08:36:19;22.70;99.90
5689;DHT22;2869;50.432;8.680;2022-08-30T08:38:46;22.80;99.90
5689;DHT22;2869;50.432;8.680;2022-08-30T08:41:26;22.90;99.90
5689;DHT22;2869;50.432;8.680;2022-08-30T08:43:57;23.00;99.90
5689;DHT22;2869;50.432;8.680;2022-08-30T08:46:28;23.00;99.90
5689;DHT22;2869;50.432;8.680;2022-08-30T08:48:57;23.10;99.90
5689;DHT22;2869;50.432;8.680;2022-08-30T08:51:31;23.00;99.90
5689;DHT22;2869;50.432;8.680;2022-08-30T08:54:20;23.00;99.90
5689;DHT22;2869;50.432;8.680;2022-08-30T08:56:47;23.10;99.90
5689;DHT22;2869;50.432;8.680;2022-08-30T08:59:15;23.60;99.90
5689;DHT22;2869;50.432;8.680;2022-08-30T09:01:43;23.90;99.90
5689;DHT22;2869;50.432;8.680;2022-08-30T09:04:19;24.10;99.90
5689;DHT22;2869;50.432;8.680;2022-08-30T09:06:52;24.40;99.90
5689;DHT22;2869;50.432;8.680;2022-08-30T09:09:24;24.60;99.90
5689;DHT22;2869;50.432;8.680;2022-08-30T09:11:51;24.60;99.90
5689;DHT22;2869;50.432;8.680;2022-08-30T09:14:22;24.90;99.90
5689;DHT22;2869;50.432;8.680;2022-08-30T09:16:57;25.40;99.90
5689;DHT22;2869;50.432;8.680;2022-08-30T09:19:30;25.90;99.90
5689;DHT22;2869;50.432;8.680;2022-08-30T09:21:59;26.40;99.90
5689;DHT22;2869;50.432;8.680;2022-08-30T09:24:36;26.80;99.90
5689;DHT22;2869;50.432;8.680;2022-08-30T09:27:14;27.10;99.90
5689;DHT22;2869;50.432;8.680;2022-08-30T09:29:50;27.10;99.90
5689;DHT22;2869;50.432;8.680;2022-08-30T09:32:24;27.20;99.90
5689;DHT22;2869;50.432;8.680;2022-08-30T09:34:51;27.20;99.90
5689;DHT22;2869;50.432;8.680;2022-08-30T09:37:28;27.20;99.90
5689;DHT22;2869;50.432;8.680;2022-08-30T09:39:56;27.10;99.90
5689;DHT22;2869;50.432;8.680;2022-08-30T09:42:26;27.40;99.90
5689;DHT22;2869;50.432;8.680;2022-08-30T09:44:54;27.50;98.70
5689;DHT22;2869;50.432;8.680;2022-08-30T09:47:37;27.70;98.10
5689;DHT22;2869;50.432;8.680;2022-08-30T09:50:08;27.80;97.70
5689;DHT22;2869;50.432;8.680;2022-08-30T09:52:43;27.80;96.50
5689;DHT22;2869;50.432;8.680;2022-08-30T09:55:22;27.80;96.60
5689;DHT22;2869;50.432;8.680;2022-08-30T09:57:56;27.60;96.50
5689;DHT22;2869;50.432;8.680;2022-08-30T10:00:28;27.30;97.20
5689;DHT22;2869;50.432;8.680;2022-08-30T10:03:26;27.20;96.40
5689;DHT22;2869;50.432;8.680;2022-08-30T10:06:02;27.40;96.80
5689;DHT22;2869;50.432;8.680;2022-08-30T10:08:41;27.70;96.40
5689;DHT22;2869;50.432;8.680;2022-08-30T10:11:17;28.00;96.20
5689;DHT22;2869;50.432;8.680;2022-08-30T10:14:06;28.30;95.60
5689;DHT22;2869;50.432;8.680;2022-08-30T10:16:44;28.50;94.90
5689;DHT22;2869;50.432;8.680;2022-08-30T10:19:23;28.40;94.00
5689;DHT22;2869;50.432;8.680;2022-08-30T10:21:58;28.40;95.00
5689;DHT22;2869;50.432;8.680;2022-08-30T10:24:28;28.40;93.10
5689;DHT22;2869;50.432;8.680;2022-08-30T10:27:03;28.60;93.90
5689;DHT22;2869;50.432;8.680;2022-08-30T10:29:35;28.60;93.60
5689;DHT22;2869;50.432;8.680;2022-08-30T10:32:11;28.80;92.40
5689;DHT22;2869;50.432;8.680;2022-08-30T10:34:45;28.70;92.00
5689;DHT22;2869;50.432;8.680;2022-08-30T10:37:16;28.90;91.70
5689;DHT22;2869;50.432;8.680;2022-08-30T10:39:46;29.10;90.30
5689;DHT22;2869;50.432;8.680;2022-08-30T10:42:18;29.00;90.50
5689;DHT22;2869;50.432;8.680;2022-08-30T10:44:49;28.90;90.80
5689;DHT22;2869;50.432;8.680;2022-08-30T10:47:27;29.00;90.40
5689;DHT22;2869;50.432;8.680;2022-08-30T10:50:03;29.20;90.10
5689;DHT22;2869;50.432;8.680;2022-08-30T10:52:33;29.40;88.20
5689;DHT22;2869;50.432;8.680;2022-08-30T10:55:07;29.40;87.90
5689;DHT22;2869;50.432;8.680;2022-08-30T10:57:35;29.50;87.20
5689;DHT22;2869;50.432;8.680;2022-08-30T11:00:05;29.60;86.60
5689;DHT22;2869;50.432;8.680;2022-08-30T11:03:05;29.40;86.20
5689;DHT22;2869;50.432;8.680;2022-08-30T11:06:12;29.40;87.50
5689;DHT22;2869;50.432;8.680;2022-08-30T11:09:05;29.40;88.00
5689;DHT22;2869;50.432;8.680;2022-08-30T11:11:45;29.30;87.40
5689;DHT22;2869;50.432;8.680;2022-08-30T11:14:18;29.20;86.40
5689;DHT22;2869;50.432;8.680;2022-08-30T11:16:48;29.20;86.20
5689;DHT22;2869;50.432;8.680;2022-08-30T11:19:18;29.30;87.30
5689;DHT22;2869;50.432;8.680;2022-08-30T11:21:49;29.40;87.70
5689;DHT22;2869;50.432;8.680;2022-08-30T11:24:16;29.60;86.30
5689;DHT22;2869;50.432;8.680;2022-08-30T11:26:57;29.60;86.20
5689;DHT22;2869;50.432;8.680;2022-08-30T11:29:43;29.40;86.40
5689;DHT22;2869;50.432;8.680;2022-08-30T11:32:22;29.30;85.80
5689;DHT22;2869;50.432;8.680;2022-08-30T11:34:54;29.30;85.90
5689;DHT22;2869;50.432;8.680;2022-08-30T11:37:34;29.40;86.90
5689;DHT22;2869;50.432;8.680;2022-08-30T11:40:13;29.50;87.80
5689;DHT22;2869;50.432;8.680;2022-08-30T11:46:15;29.60;87.20
5689;DHT22;2869;50.432;8.680;2022-08-30T11:48:51;30.00;86.00
5689;DHT22;2869;50.432;8.680;2022-08-30T11:51:35;30.00;85.60
5689;DHT22;2869;50.432;8.680;2022-08-30T11:54:13;30.00;86.40
5689;DHT22;2869;50.432;8.680;2022-08-30T11:56:50;30.20;86.90
5689;DHT22;2869;50.432;8.680;2022-08-30T11:59:27;30.50;86.00
5689;DHT22;2869;50.432;8.680;2022-08-30T12:01:56;30.60;85.00
5689;DHT22;2869;50.432;8.680;2022-08-30T12:04:34;30.40;85.40
5689;DHT22;2869;50.432;8.680;2022-08-30T12:07:03;30.30;85.70
5689;DHT22;2869;50.432;8.680;2022-08-30T12:10:02;30.30;85.90
5689;DHT22;2869;50.432;8.680;2022-08-30T12:12:49;30.30;86.60
5689;DHT22;2869;50.432;8.680;2022-08-30T12:18:38;30.70;85.40
5689;DHT22;2869;50.432;8.680;2022-08-30T12:21:23;31.00;86.10
5689;DHT22;2869;50.432;8.680;2022-08-30T12:23:52;31.10;84.00
5689;DHT22;2869;50.432;8.680;2022-08-30T12:26:29;31.00;84.50
5689;DHT22;2869;50.432;8.680;2022-08-30T12:29:08;31.00;84.80
5689;DHT22;2869;50.432;8.680;2022-08-30T12:31:39;31.10;82.90
5689;DHT22;2869;50.432;8.680;2022-08-30T12:34:07;31.10;82.90
5689;DHT22;2869;50.432;8.680;2022-08-30T12:36:37;31.10;83.00
5689;DHT22;2869;50.432;8.680;2022-08-30T12:39:10;31.30;83.00
5689;DHT22;2869;50.432;8.680;2022-08-30T12:41:38;31.30;81.60
5689;DHT22;2869;50.432;8.680;2022-08-30T12:44:07;31.30;82.30
5689;DHT22;2869;50.432;8.680;2022-08-30T12:46:35;31.20;81.50
5689;DHT22;2869;50.432;8.680;2022-08-30T12:49:02;31.00;82.50
5689;DHT22;2869;50.432;8.680;2022-08-30T12:51:39;30.90;82.10
5689;DHT22;2869;50.432;8.680;2022-08-30T12:54:16;30.90;81.80
5689;DHT22;2869;50.432;8.680;2022-08-30T12:56:47;30.70;80.70
5689;DHT22;2869;50.432;8.680;2022-08-30T12:59:42;30.50;81.40
5689;DHT22;2869;50.432;8.680;2022-08-30T13:02:13;30.60;81.70
5689;DHT22;2869;50.432;8.680;2022-08-30T13:04:40;30.60;81.90
5689;DHT22;2869;50.432;8.680;2022-08-30T13:07:08;30.80;82.10
5689;DHT22;2869;50.432;8.680;2022-08-30T13:09:36;31.00;82.00
5689;DHT22;2869;50.432;8.680;2022-08-30T13:12:06;31.30;82.30
5689;DHT22;2869;50.432;8.680;2022-08-30T13:14:36;31.50;81.00
5689;DHT22;2869;50.432;8.680;2022-08-30T13:17:09;31.60;80.00
5689;DHT22;2869;50.432;8.680;2022-08-30T13:19:38;31.70;80.80
5689;DHT22;2869;50.432;8.680;2022-08-30T13:22:06;31.60;80.20
5689;DHT22;2869;50.432;8.680;2022-08-30T13:24:51;31.40;80.00
5689;DHT22;2869;50.432;8.680;2022-08-30T13:27:18;31.30;80.10
5689;DHT22;2869;50.432;8.680;2022-08-30T13:29:46;31.20;80.60
5689;DHT22;2869;50.432;8.680;2022-08-30T13:32:13;31.20;80.00
5689;DHT22;2869;50.432;8.680;2022-08-30T13:34:40;31.10;80.70
5689;DHT22;2869;50.432;8.680;2022-08-30T13:37:10;31.00;79.90
5689;DHT22;2869;50.432;8.680;2022-08-30T13:39:38;30.90;79.70
5689;DHT22;2869;50.432;8.680;2022-08-30T13:42:06;30.70;80.00
5689;DHT22;2869;50.432;8.680;2022-08-30T13:44:33;30.40;80.10
5689;DHT22;2869;50.432;8.680;2022-08-30T13:47:00;30.20;81.20
5689;DHT22;2869;50.432;8.680;2022-08-30T13:49:29;30.00;82.50
5689;DHT22;2869;50.432;8.680;2022-08-30T13:51:56;30.00;82.30
5689;DHT22;2869;50.432;8.680;2022-08-30T13:54:23;30.00;81.70
5689;DHT22;2869;50.432;8.680;2022-08-30T13:56:51;30.00;82.00
5689;DHT22;2869;50.432;8.680;2022-08-30T13:59:20;30.10;82.20
5689;DHT22;2869;50.432;8.680;2022-08-30T14:01:48;30.30;81.00
5689;DHT22;2869;50.432;8.680;2022-08-30T14:04:15;30.10;82.00
5689;DHT22;2869;50.432;8.680;2022-08-30T14:06:41;30.00;81.00
5689;DHT22;2869;50.432;8.680;2022-08-30T14:09:08;30.00;82.10
5689;DHT22;2869;50.432;8.680;2022-08-30T14:11:37;30.10;81.10
5689;DHT22;2869;50.432;8.680;2022-08-30T14:14:03;30.10;81.60
5689;DHT22;2869;50.432;8.680;2022-08-30T14:16:32;30.10;80.80
5689;DHT22;2869;50.432;8.680;2022-08-30T14:19:01;30.10;81.70
5689;DHT22;2869;50.432;8.680;2022-08-30T14:21:28;30.20;81.60
5689;DHT22;2869;50.432;8.680;2022-08-30T14:23:55;30.40;81.00
5689;DHT22;2869;50.432;8.680;2022-08-30T14:26:25;30.40;80.30
5689;DHT22;2869;50.432;8.680;2022-08-30T14:28:53;30.40;80.60
5689;DHT22;2869;50.432;8.680;2022-08-30T14:31:20;30.60;80.90
5689;DHT22;2869;50.432;8.680;2022-08-30T14:33:48;30.90;80.70
5689;DHT22;2869;50.432;8.680;2022-08-30T14:36:16;31.10;80.20
5689;DHT22;2869;50.432;8.680;2022-08-30T14:38:43;31.30;79.80
5689;DHT22;2869;50.432;8.680;2022-08-30T14:41:10;31.40;79.50
5689;DHT22;2869;50.432;8.680;2022-08-30T14:43:37;31.30;79.30
5689;DHT22;2869;50.432;8.680;2022-08-30T14:46:06;31.20;80.20
5689;DHT22;2869;50.432;8.680;2022-08-30T14:48:34;31.20;80.20
5689;DHT22;2869;50.432;8.680;2022-08-30T14:51:02;31.30;79.20
5689;DHT22;2869;50.432;8.680;2022-08-30T14:53:36;31.20;79.10
5689;DHT22;2869;50.432;8.680;2022-08-30T14:56:06;31.20;79.20
5689;DHT22;2869;50.432;8.680;2022-08-30T14:58:33;31.30;79.10
5689;DHT22;2869;50.432;8.680;2022-08-30T15:00:59;31.30;79.30
5689;DHT22;2869;50.432;8.680;2022-08-30T15:03:26;31.10;80.00
5689;DHT22;2869;50.432;8.680;2022-08-30T15:05:52;31.00;79.60
5689;DHT22;2869;50.432;8.680;2022-08-30T15:08:20;30.90;79.70
5689;DHT22;2869;50.432;8.680;2022-08-30T15:10:47;30.50;79.50
5689;DHT22;2869;50.432;8.680;2022-08-30T15:13:14;30.10;80.20
5689;DHT22;2869;50.432;8.680;2022-08-30T15:15:41;29.90;80.60
5689;DHT22;2869;50.432;8.680;2022-08-30T15:18:08;29.80;80.90
5689;DHT22;2869;50.432;8.680;2022-08-30T15:20:35;29.60;80.90
5689;DHT22;2869;50.432;8.680;2022-08-30T15:23:02;29.40;82.00
5689;DHT22;2869;50.432;8.680;2022-08-30T15:25:31;29.30;81.90
5689;DHT22;2869;50.432;8.680;2022-08-30T15:27:57;29.40;81.50
5689;DHT22;2869;50.432;8.680;2022-08-30T15:30:24;29.50;81.70
5689;DHT22;2869;50.432;8.680;2022-08-30T15:32:50;29.60;81.20
5689;DHT22;2869;50.432;8.680;2022-08-30T15:35:17;29.60;80.80
5689;DHT22;2869;50.432;8.680;2022-08-30T15:37:44;29.70;81.30
5689;DHT22;2869;50.432;8.680;2022-08-30T15:40:11;29.80;81.10
5689;DHT22;2869;50.432;8.680;2022-08-30T15:42:39;29.70;80.70
5689;DHT22;2869;50.432;8.680;2022-08-30T15:45:07;29.70;80.70
5689;DHT22;2869;50.432;8.680;2022-08-30T15:47:34;29.60;81.40
5689;DHT22;2869;50.432;8.680;2022-08-30T15:50:04;29.70;81.70
5689;DHT22;2869;50.432;8.680;2022-08-30T15:52:32;29.60;81.90
5689;DHT22;2869;50.432;8.680;2022-08-30T15:54:59;29.70;82.60
5689;DHT22;2869;50.432;8.680;2022-08-30T15:57:25;29.50;81.90
5689;DHT22;2869;50.432;8.680;2022-08-30T15:59:53;29.50;83.10
5689;DHT22;2869;50.432;8.680;2022-08-30T16:02:20;29.50;82.90
5689;DHT22;2869;50.432;8.680;2022-08-30T16:04:47;29.50;82.50
5689;DHT22;2869;50.432;8.680;2022-08-30T16:07:14;29.60;83.00
5689;DHT22;2869;50.432;8.680;2022-08-30T16:09:41;29.70;83.10
5689;DHT22;2869;50.432;8.680;2022-08-30T16:12:08;29.80;83.00
5689;DHT22;2869;50.432;8.680;2022-08-30T16:14:35;29.80;81.50
5689;DHT22;2869;50.432;8.680;2022-08-30T16:17:03;29.80;81.60
5689;DHT22;2869;50.432;8.680;2022-08-30T16:19:30;29.70;81.90
5689;DHT22;2869;50.432;8.680;2022-08-30T16:21:57;29.60;82.70
5689;DHT22;2869;50.432;8.680;2022-08-30T16:24:24;29.50;82.90